createdAt,value
2018-02-22T00:01:59.982Z,26.50
2018-02-22T00:04:28.252Z,28.08
2018-02-22T00:06:56.503Z,25.77
2018-02-22T00:09:24.015Z,27.98
2018-02-22T00:11:51.514Z,27.37
2018-02-22T00:14:19.010Z,25.75
2018-02-22T00:16:47.285Z,27.58
2018-02-22T00:19:15.547Z,26.42
2018-02-22T00:21:43.815Z,26.65
2018-02-22T00:24:11.324Z,24.45
2018-02-22T00:26:38.820Z,27.42
2018-02-22T00:29:06.328Z,27.83
2018-02-22T00:31:33.843Z,27.85
2018-02-22T00:34:01.352Z,26.58
2018-02-22T00:36:28.866Z,29.73
2018-02-22T00:38:56.365Z,28.75
2018-02-22T00:41:23.864Z,28.80
2018-02-22T00:43:51.379Z,26.30
2018-02-22T00:46:18.871Z,28.40
2018-02-22T00:48:46.364Z,26.62
2018-02-22T00:51:14.641Z,26.00
2018-02-22T00:53:42.914Z,25.67
2018-02-22T00:56:11.187Z,25.70
2018-02-22T00:58:41.562Z,25.88
2018-02-22T01:01:09.214Z,27.00
2018-02-22T01:03:36.833Z,27.52
2018-02-22T01:06:04.343Z,25.77
2018-02-22T01:08:31.839Z,30.27
2018-02-22T01:10:59.330Z,26.48
2018-02-22T01:13:27.591Z,25.45
2018-02-22T01:15:55.859Z,25.30
2018-02-22T01:18:23.372Z,26.80
2018-02-22T01:20:50.875Z,28.83
2018-02-22T01:23:18.373Z,27.92
2018-02-22T01:25:45.869Z,27.17
2018-02-22T01:28:13.373Z,27.77
2018-02-22T01:30:41.674Z,25.08
2018-02-22T01:33:09.167Z,25.95
2018-02-22T01:35:36.672Z,28.40
2018-02-22T01:38:04.175Z,26.20
2018-02-22T01:40:31.683Z,27.58
2018-02-22T01:42:59.955Z,29.40
2018-02-22T01:45:28.216Z,28.15
2018-02-22T01:47:58.275Z,29.35
2018-02-22T01:50:26.719Z,29.45
2018-02-22T01:52:54.987Z,30.73
2018-02-22T01:55:22.496Z,29.52
2018-02-22T01:57:53.370Z,27.90
2018-02-22T02:00:21.084Z,31.00
2018-02-22T02:02:48.584Z,29.67
2018-02-22T02:05:16.106Z,30.50
2018-02-22T02:07:43.614Z,28.70
2018-02-22T02:10:11.123Z,31.70
2018-02-22T02:12:39.451Z,28.75
2018-02-22T02:15:06.946Z,28.40
2018-02-22T02:17:34.459Z,29.77
2018-02-22T02:20:01.966Z,29.67
2018-02-22T02:22:29.476Z,28.15
2018-02-22T02:24:56.967Z,29.23
2018-02-22T02:27:25.240Z,29.55
2018-02-22T02:29:52.759Z,33.10
2018-02-22T02:32:20.277Z,30.48
2018-02-22T02:34:47.776Z,30.65
2018-02-22T02:37:15.280Z,29.27
2018-02-22T02:39:43.558Z,30.73
2018-02-22T02:42:11.817Z,31.67
2018-02-22T02:44:40.090Z,30.60
2018-02-22T02:47:08.381Z,31.27
2018-02-22T02:49:36.669Z,31.45
2018-02-22T02:52:04.193Z,32.67
2018-02-22T02:54:31.704Z,31.25
2018-02-22T02:56:59.198Z,30.65
2018-02-22T02:59:26.691Z,30.50
2018-02-22T03:01:54.952Z,30.05
2018-02-22T03:04:23.236Z,30.73
2018-02-22T03:06:51.499Z,32.05
2018-02-22T03:09:18.991Z,32.15
2018-02-22T03:11:46.513Z,31.80
2018-02-22T03:14:14.106Z,32.22
2018-02-22T03:16:41.612Z,32.05
2018-02-22T03:19:09.131Z,31.62
2018-02-22T03:21:36.626Z,31.42
2018-02-22T03:24:04.135Z,31.77
2018-02-22T03:26:32.390Z,32.45
2018-02-22T03:29:00.664Z,31.60
2018-02-22T03:31:28.155Z,31.65
2018-02-22T03:33:55.655Z,32.75
2018-02-22T03:36:23.155Z,33.13
2018-02-22T03:38:51.434Z,31.60
2018-02-22T03:41:19.712Z,32.88
2018-02-22T03:43:47.979Z,32.35
2018-02-22T03:46:16.245Z,32.78
2018-02-22T03:48:43.748Z,32.63
2018-02-22T03:51:11.259Z,32.28
2018-02-22T03:53:38.757Z,33.45
2018-02-22T03:56:06.259Z,34.40
2018-02-22T03:58:33.780Z,34.65
2018-02-22T04:01:01.302Z,30.40
2018-02-22T04:03:29.578Z,33.72
2018-02-22T04:05:57.843Z,32.60
2018-02-22T04:08:25.359Z,33.45
2018-02-22T04:10:52.863Z,33.38
2018-02-22T04:13:20.388Z,33.17
2018-02-22T04:15:47.896Z,32.20
2018-02-22T04:18:16.196Z,34.58
2018-02-22T04:20:44.481Z,33.20
2018-02-22T04:23:11.991Z,33.17
2018-02-22T04:25:39.499Z,32.60
2018-02-22T04:28:07.002Z,32.97
2018-02-22T04:30:34.511Z,33.70
2018-02-22T04:33:02.003Z,33.92
2018-02-22T04:35:29.509Z,31.90
2018-02-22T04:37:57.777Z,34.58
2018-02-22T04:40:26.040Z,35.00
2018-02-22T04:42:54.306Z,32.85
2018-02-22T04:45:21.809Z,34.63
2018-02-22T04:47:49.319Z,35.70
2018-02-22T04:50:16.815Z,32.40
2018-02-22T04:52:44.321Z,33.08
2018-02-22T04:55:11.826Z,34.33
2018-02-22T04:57:40.087Z,32.97
2018-02-22T05:00:08.343Z,33.47
2018-02-22T05:02:35.853Z,33.90
2018-02-22T05:05:03.363Z,34.45
2018-02-22T05:07:30.874Z,34.33
2018-02-22T05:09:58.367Z,34.55
2018-02-22T05:12:26.814Z,35.38
2018-02-22T05:14:54.307Z,35.50
2018-02-22T05:17:21.812Z,34.95
2018-02-22T05:19:49.320Z,35.08
2018-02-22T05:22:16.823Z,31.50
2018-02-22T05:24:45.083Z,34.47
2018-02-22T05:27:12.600Z,34.45
2018-02-22T05:29:40.095Z,33.45
2018-02-22T05:32:07.595Z,35.47
2018-02-22T05:34:35.112Z,34.15
2018-02-22T05:37:02.612Z,33.83
2018-02-22T05:39:30.117Z,34.10
2018-02-22T05:41:57.618Z,36.53
2018-02-22T05:44:25.118Z,35.38
2018-02-22T05:46:52.606Z,35.60
2018-02-22T05:49:20.871Z,33.75
2018-02-22T05:51:48.367Z,33.20
2018-02-22T05:54:15.883Z,33.92
2018-02-22T05:56:43.378Z,35.55
2018-02-22T05:59:10.898Z,33.75
2018-02-22T06:01:38.395Z,35.95
2018-02-22T06:04:05.894Z,33.70
2018-02-22T06:06:33.402Z,33.80
2018-02-22T06:09:01.679Z,34.22
2018-02-22T06:11:29.959Z,34.10
2018-02-22T06:13:58.223Z,33.35
2018-02-22T06:16:26.488Z,33.13
2018-02-22T06:18:53.986Z,34.45
2018-02-22T06:21:21.485Z,35.40
2018-02-22T06:23:48.977Z,33.92
2018-02-22T06:26:17.248Z,33.42
2018-02-22T06:28:45.538Z,33.65
2018-02-22T06:31:13.812Z,34.85
2018-02-22T06:33:42.075Z,34.35
2018-02-22T06:36:10.343Z,35.50
2018-02-22T06:38:37.843Z,31.67
2018-02-22T06:41:05.355Z,31.73
2018-02-22T06:43:32.867Z,34.17
2018-02-22T06:46:00.413Z,35.55
2018-02-22T06:48:27.929Z,34.00
2018-02-22T06:50:55.451Z,34.95
2018-02-22T06:53:23.003Z,33.72
2018-02-22T06:55:50.528Z,34.17
2018-02-22T06:58:18.803Z,33.10
2018-02-22T07:00:47.071Z,33.97
2018-02-22T07:03:14.575Z,33.65
2018-02-22T07:05:42.067Z,34.03
2018-02-22T07:08:09.583Z,32.67
2018-02-22T07:10:37.137Z,34.85
2018-02-22T07:13:04.638Z,35.58
2018-02-22T07:15:32.912Z,33.45
2018-02-22T07:18:00.455Z,33.25
2018-02-22T07:20:27.968Z,31.98
2018-02-22T07:22:55.515Z,36.45
2018-02-22T07:25:23.022Z,32.65
2018-02-22T07:27:50.539Z,32.42
2018-02-22T07:30:18.802Z,32.85
2018-02-22T07:32:46.323Z,32.53
2018-02-22T07:35:13.831Z,32.75
2018-02-22T07:37:42.110Z,32.90
2018-02-22T07:40:10.370Z,30.67
2018-02-22T07:42:37.887Z,31.42
2018-02-22T07:45:05.407Z,30.58
2018-02-22T07:47:33.691Z,33.22
2018-02-22T07:50:01.972Z,31.00
2018-02-22T07:52:29.488Z,33.45
2018-02-22T07:54:57.012Z,31.83
2018-02-22T07:57:24.535Z,31.70
2018-02-22T07:59:52.799Z,31.48
2018-02-22T08:02:20.300Z,33.15
2018-02-22T08:04:47.817Z,33.80
2018-02-22T08:07:15.312Z,31.95
2018-02-22T08:09:42.807Z,31.62
2018-02-22T08:12:10.312Z,32.03
2018-02-22T08:14:38.583Z,31.77
2018-02-22T08:17:06.863Z,32.90
2018-02-22T08:19:35.144Z,30.62
2018-02-22T08:22:03.512Z,30.52
2018-02-22T08:24:31.779Z,31.58
2018-02-22T08:27:00.075Z,33.95
2018-02-22T08:29:27.568Z,32.22
2018-02-22T08:31:55.116Z,31.50
2018-02-22T08:34:22.613Z,31.85
2018-02-22T08:36:50.127Z,31.98
2018-02-22T08:39:17.636Z,31.90
2018-02-22T08:41:45.152Z,30.45
2018-02-22T08:44:12.654Z,31.85
2018-02-22T08:46:40.163Z,33.92
2018-02-22T08:49:07.658Z,32.67
2018-02-22T08:51:35.180Z,31.65
2018-02-22T08:54:02.693Z,29.92
2018-02-22T08:56:30.189Z,33.80
2018-02-22T08:58:57.757Z,30.50
2018-02-22T09:01:25.280Z,29.83
2018-02-22T09:03:53.554Z,31.90
2018-02-22T09:06:21.819Z,30.40
2018-02-22T09:08:50.088Z,32.30
2018-02-22T09:11:17.587Z,32.47
2018-02-22T09:13:45.084Z,30.52
2018-02-22T09:16:12.579Z,31.73
2018-02-22T09:18:40.896Z,31.90
2018-02-22T09:21:08.419Z,34.03
2018-02-22T09:23:36.687Z,34.58
2018-02-22T09:26:04.191Z,32.30
2018-02-22T09:28:31.687Z,32.10
2018-02-22T09:30:59.183Z,30.60
2018-02-22T09:33:27.459Z,30.73
2018-02-22T09:35:55.719Z,31.45
2018-02-22T09:38:24.004Z,32.95
2018-02-22T09:40:52.283Z,30.45
2018-02-22T09:43:20.547Z,31.50
2018-02-22T09:45:48.821Z,30.62
2018-02-22T09:48:16.319Z,54.97
2018-02-22T09:50:43.825Z,54.03
2018-02-22T09:53:11.327Z,52.80
2018-02-22T09:55:38.823Z,56.37
2018-02-22T09:58:06.352Z,52.28
2018-02-22T10:00:33.853Z,52.35
2018-02-22T10:03:01.439Z,45.08
2018-02-22T10:05:29.704Z,55.15
2018-02-22T10:07:57.209Z,50.15
2018-02-22T10:10:24.705Z,57.28
2018-02-22T10:12:52.326Z,55.63
2018-02-22T10:15:19.827Z,51.28
2018-02-22T10:17:47.324Z,49.53
2018-02-22T10:20:14.902Z,50.80
2018-02-22T10:22:42.390Z,31.67
2018-02-22T10:25:09.920Z,29.23
2018-02-22T10:27:37.431Z,28.70
2018-02-22T10:30:04.936Z,29.00
2018-02-22T10:32:32.445Z,29.65
2018-02-22T10:34:59.947Z,30.70
2018-02-22T10:37:27.448Z,29.25
2018-02-22T10:39:54.970Z,29.80
2018-02-22T10:42:22.487Z,31.80
2018-02-22T10:44:50.809Z,30.45
2018-02-22T10:47:19.051Z,29.65
2018-02-22T10:49:47.312Z,28.90
2018-02-22T10:52:14.817Z,30.10
2018-02-22T10:54:42.315Z,31.27
2018-02-22T10:57:09.827Z,49.45
2018-02-22T10:59:37.324Z,53.53
2018-02-22T11:02:10.584Z,50.47
2018-02-22T11:04:38.119Z,55.35
2018-02-22T11:07:06.383Z,58.83
2018-02-22T11:09:34.660Z,52.58
2018-02-22T11:12:02.931Z,50.60
2018-02-22T11:14:31.198Z,53.75
2018-02-22T11:16:58.708Z,50.70
2018-02-22T11:19:26.200Z,52.08
2018-02-22T11:21:53.696Z,54.10
2018-02-22T11:24:21.967Z,49.60
2018-02-22T11:26:50.225Z,55.78
2018-02-22T11:29:17.714Z,54.30
2018-02-22T11:31:45.223Z,55.78
2018-02-22T11:34:12.726Z,51.78
2018-02-22T11:36:40.235Z,50.03
2018-02-22T11:39:07.727Z,49.55
2018-02-22T11:41:36.010Z,52.53
2018-02-22T11:44:04.326Z,53.17
2018-02-22T11:46:31.846Z,52.60
2018-02-22T11:49:00.224Z,55.42
2018-02-22T11:51:28.491Z,49.55
2018-02-22T11:53:56.760Z,55.55
2018-02-22T11:56:24.272Z,51.88
2018-02-22T11:58:51.775Z,29.95
2018-02-22T12:01:19.287Z,52.83
2018-02-22T12:03:46.784Z,49.53
2018-02-22T12:06:14.279Z,56.70
2018-02-22T12:08:42.539Z,59.42
2018-02-22T12:11:10.829Z,57.20
2018-02-22T12:13:39.095Z,54.05
2018-02-22T12:16:07.401Z,52.60
2018-02-22T12:18:34.929Z,57.47
2018-02-22T12:21:03.207Z,55.75
2018-02-22T12:26:06.113Z,58.95
2018-02-22T12:28:34.420Z,60.88
2018-02-22T12:31:01.920Z,56.20
2018-02-22T12:33:30.184Z,59.45
2018-02-22T12:35:57.677Z,55.53
2018-02-22T12:38:25.947Z,55.72
2018-02-22T12:40:54.209Z,30.65
2018-02-22T12:43:21.720Z,29.02
2018-02-22T12:45:49.215Z,28.23
2018-02-22T12:48:16.723Z,29.73
2018-02-22T12:50:44.250Z,26.85
2018-02-22T12:53:11.767Z,28.55
2018-02-22T12:55:39.279Z,29.83
2018-02-22T12:58:07.555Z,28.50
2018-02-22T13:00:35.836Z,28.60
2018-02-22T13:03:04.096Z,30.42
2018-02-22T13:05:31.591Z,29.90
2018-02-22T13:07:59.104Z,27.58
2018-02-22T13:10:26.604Z,27.62
2018-02-22T13:12:54.156Z,27.08
2018-02-22T13:15:22.432Z,28.62
2018-02-22T13:17:50.713Z,27.48
2018-02-22T13:20:18.210Z,29.98
2018-02-22T13:22:45.720Z,28.05
2018-02-22T13:25:13.987Z,26.55
2018-02-22T13:27:42.259Z,28.58
2018-02-22T13:30:10.534Z,25.67
2018-02-22T13:32:50.912Z,27.70
2018-02-22T13:35:19.247Z,29.00
2018-02-22T13:51:16.798Z,26.23
2018-02-22T13:53:44.298Z,28.10
2018-02-22T13:56:24.508Z,24.70
2018-02-22T13:58:52.024Z,28.08
2018-02-22T14:01:31.616Z,26.35
2018-02-22T14:03:59.122Z,28.85
2018-02-22T14:06:26.635Z,24.67
2018-02-22T14:08:54.153Z,28.62
2018-02-22T14:11:21.663Z,26.52
2018-02-22T14:13:49.180Z,26.33
2018-02-22T14:16:16.696Z,27.58
2018-02-22T14:18:44.951Z,26.37
2018-02-22T14:21:14.001Z,26.48
2018-02-22T14:23:41.526Z,26.67
2018-02-22T14:26:09.806Z,25.62
2018-02-22T14:28:38.067Z,24.90
2018-02-22T14:31:06.332Z,25.58
2018-02-22T14:33:33.841Z,25.62
2018-02-22T14:36:01.339Z,26.42
2018-02-22T14:38:28.858Z,26.15
2018-02-22T14:40:56.368Z,25.73
2018-02-22T14:43:23.870Z,26.90
2018-02-22T14:45:51.387Z,25.50
2018-02-22T14:48:18.901Z,26.50
2018-02-22T14:50:46.413Z,24.77
2018-02-22T14:53:13.931Z,26.20
2018-02-22T14:55:41.437Z,25.08
2018-02-22T14:58:09.716Z,24.50
2018-02-22T15:00:39.906Z,23.62
2018-02-22T15:03:07.419Z,24.50
2018-02-22T15:05:34.940Z,26.62
2018-02-22T15:08:03.248Z,25.65
2018-02-22T15:10:30.766Z,23.48
2018-02-22T15:12:58.287Z,24.52
2018-02-22T15:15:25.779Z,22.65
2018-02-22T15:17:53.275Z,23.73
2018-02-22T15:20:21.563Z,23.33
2018-02-22T15:22:49.060Z,24.00
2018-02-22T15:25:16.591Z,23.35
2018-02-22T15:27:44.121Z,22.80
2018-02-22T15:30:12.400Z,22.83
2018-02-22T15:32:40.669Z,24.45
2018-02-22T15:35:08.946Z,22.30
2018-02-22T15:37:37.208Z,22.35
2018-02-22T15:40:04.703Z,22.48
2018-02-22T15:42:32.199Z,23.75
2018-02-22T15:44:59.707Z,24.45
2018-02-22T15:47:27.974Z,25.33
2018-02-22T15:49:55.499Z,25.58
2018-02-22T15:52:23.000Z,26.10
2018-02-22T15:54:51.283Z,26.23
2018-02-22T15:57:18.775Z,24.12
2018-02-22T15:59:46.275Z,26.17
2018-02-22T16:02:13.768Z,27.23
2018-02-22T16:04:41.290Z,27.20
2018-02-22T16:07:08.795Z,26.67
2018-02-22T16:09:36.296Z,27.02
2018-02-22T16:12:03.802Z,27.15
2018-02-22T16:14:31.303Z,25.85
2018-02-22T16:16:58.809Z,26.35
2018-02-22T16:19:26.364Z,27.55
2018-02-22T16:21:53.863Z,29.15
2018-02-22T16:24:21.356Z,26.35
2018-02-22T16:26:48.847Z,30.02
2018-02-22T16:29:16.364Z,27.75
2018-02-22T16:31:43.879Z,27.08
2018-02-22T16:34:11.390Z,28.00
2018-02-22T16:36:38.888Z,25.88
2018-02-22T16:39:06.391Z,30.33
2018-02-22T16:41:33.899Z,28.20
2018-02-22T16:44:01.415Z,27.20
2018-02-22T16:46:29.031Z,26.73
2018-02-22T16:48:56.532Z,24.75
2018-02-22T16:51:24.047Z,27.20
2018-02-22T16:53:51.563Z,27.92
2018-02-22T16:56:19.852Z,28.35
2018-02-22T16:58:48.131Z,26.60
2018-02-22T17:01:16.396Z,26.98
2018-02-22T17:03:44.675Z,28.75
2018-02-22T17:06:12.955Z,29.50
2018-02-22T17:08:41.217Z,32.22
2018-02-22T17:11:08.738Z,30.30
2018-02-22T17:13:36.238Z,30.92
2018-02-22T17:16:04.524Z,28.92
2018-02-22T17:18:32.799Z,31.52
2018-02-22T17:21:01.060Z,30.27
2018-02-22T17:23:29.387Z,27.75
2018-02-22T17:26:03.315Z,29.10
2018-02-22T17:28:36.613Z,28.90
2018-02-22T17:31:09.947Z,29.70
2018-02-22T17:33:38.243Z,29.45
2018-02-22T17:36:11.392Z,29.98
2018-02-22T17:38:40.724Z,28.92
2018-02-22T17:41:08.999Z,28.95
2018-02-22T17:43:37.267Z,28.52
2018-02-22T17:46:05.535Z,30.50
2018-02-22T17:48:33.027Z,29.10
2018-02-22T17:51:00.546Z,27.92
2018-02-22T17:53:28.804Z,27.45
2018-02-22T17:55:56.302Z,28.20
2018-02-22T17:58:24.635Z,27.02
2018-02-22T18:00:52.169Z,28.17
2018-02-22T18:03:19.671Z,28.98
2018-02-22T18:05:47.173Z,28.48
2018-02-22T18:08:14.743Z,27.15
2018-02-22T18:10:42.239Z,27.83
2018-02-22T18:13:09.727Z,27.35
2018-02-22T18:15:37.999Z,24.85
2018-02-22T18:18:06.312Z,28.12
2018-02-22T18:20:33.827Z,26.00
2018-02-22T18:23:01.324Z,26.87
2018-02-22T18:25:28.848Z,25.88
2018-02-22T18:27:57.110Z,25.67
2018-02-22T18:30:24.613Z,24.98
2018-02-22T18:32:52.130Z,24.15
2018-02-22T18:35:20.389Z,25.92
2018-02-22T18:38:05.638Z,24.42
2018-02-22T18:40:40.193Z,25.73
2018-02-22T18:43:13.354Z,24.50
2018-02-22T18:45:40.866Z,25.73
2018-02-22T18:48:09.144Z,25.95
2018-02-22T18:50:37.411Z,25.50
2018-02-22T18:53:05.712Z,26.30
2018-02-22T18:55:33.979Z,25.98
2018-02-22T18:58:02.260Z,26.90
2018-02-22T19:00:30.527Z,25.83
2018-02-22T19:02:58.794Z,25.00
2018-02-22T19:05:27.064Z,25.65
2018-02-22T19:07:54.568Z,28.87
2018-02-22T19:10:22.067Z,26.25
2018-02-22T19:12:49.565Z,28.33
2018-02-22T19:15:17.829Z,29.02
2018-02-22T19:17:46.111Z,26.58
2018-02-22T19:20:14.521Z,27.48
2018-02-22T19:22:42.070Z,27.70
2018-02-22T19:25:09.608Z,24.35
2018-02-22T19:27:37.915Z,25.30
2018-02-22T19:30:05.421Z,25.50
2018-02-22T19:32:32.922Z,26.48
2018-02-22T19:35:00.420Z,27.52
2018-02-22T19:37:27.941Z,27.30
2018-02-22T19:39:55.459Z,25.55
2018-02-22T19:42:22.975Z,25.75
2018-02-22T19:44:50.482Z,24.02
2018-02-22T19:47:18.796Z,31.12
2018-02-22T19:49:46.316Z,27.92
2018-02-22T19:52:13.895Z,27.08
2018-02-22T19:54:42.206Z,25.98
2018-02-22T19:57:09.748Z,27.17
2018-02-22T19:59:37.264Z,25.45
2018-02-22T20:02:04.759Z,25.30
2018-02-22T20:04:32.280Z,27.83
2018-02-22T20:06:59.790Z,26.12
2018-02-22T20:09:27.416Z,26.05
2018-02-22T20:11:55.706Z,27.45
2018-02-22T20:14:24.487Z,26.73
2018-02-22T20:16:52.753Z,26.40
2018-02-22T20:19:21.107Z,27.48
2018-02-22T20:21:48.638Z,27.40
2018-02-22T20:24:16.153Z,27.92
2018-02-22T20:26:44.418Z,30.35
2018-02-22T20:29:11.976Z,27.10
2018-02-22T20:31:40.986Z,26.67
2018-02-22T20:34:09.300Z,28.58
2018-02-22T20:36:36.849Z,28.45
2018-02-22T20:39:04.360Z,28.17
2018-02-22T20:41:31.999Z,27.98
2018-02-22T20:43:59.549Z,26.23
2018-02-22T20:46:27.051Z,28.73
2018-02-22T20:48:54.654Z,26.85
2018-02-22T20:51:22.740Z,30.65
2018-02-22T20:53:50.313Z,28.90
2018-02-22T20:56:17.820Z,28.90
2018-02-22T20:58:46.112Z,27.62
2018-02-22T21:04:12.908Z,29.08
2018-02-22T21:06:40.463Z,27.50
2018-02-22T21:09:07.963Z,26.98
2018-02-22T21:11:36.247Z,26.65
2018-02-22T21:14:04.510Z,27.08
2018-02-22T21:16:32.090Z,25.17
2018-02-22T21:18:59.605Z,28.38
2018-02-22T21:21:27.105Z,27.52
2018-02-22T21:23:55.379Z,26.95
2018-02-22T21:26:23.675Z,27.45
2018-02-22T21:28:51.191Z,27.65
2018-02-22T21:31:18.697Z,28.75
2018-02-22T21:33:46.191Z,27.58
2018-02-22T21:36:13.691Z,29.48
2018-02-22T21:38:41.990Z,28.70
2018-02-22T21:41:09.486Z,29.12
2018-02-22T21:43:36.983Z,28.90
2018-02-22T21:46:05.250Z,28.35
2018-02-22T21:48:33.515Z,28.48
2018-02-22T21:51:01.018Z,28.42
2018-02-22T21:53:28.536Z,27.42
2018-02-22T21:55:56.051Z,30.02
2018-02-22T21:58:23.550Z,30.33
2018-02-22T22:00:51.060Z,28.00
2018-02-22T22:03:18.566Z,28.30
2018-02-22T22:05:46.064Z,29.08
2018-02-22T22:08:13.559Z,29.08
2018-02-22T22:10:41.059Z,27.85
2018-02-22T22:13:09.331Z,28.05
2018-02-22T22:15:37.587Z,28.55
2018-02-22T22:18:05.082Z,28.08
2018-02-22T22:20:32.631Z,27.40
2018-02-22T22:23:00.895Z,29.00
2018-02-22T22:25:29.175Z,28.02
2018-02-22T22:27:57.448Z,29.48
2018-02-22T22:30:25.707Z,28.12
2018-02-22T22:32:53.214Z,27.92
2018-02-22T22:35:20.720Z,28.12
2018-02-22T22:37:48.215Z,29.35
2018-02-22T22:40:15.727Z,28.52
2018-02-22T22:42:43.221Z,28.70
2018-02-22T22:45:11.494Z,29.65
2018-02-22T22:47:39.767Z,28.75
2018-02-22T22:50:08.027Z,29.33
2018-02-22T22:52:36.296Z,27.50
2018-02-22T22:55:03.791Z,30.95
2018-02-22T22:57:32.066Z,27.83
2018-02-22T23:00:00.333Z,28.35
2018-02-22T23:02:28.605Z,31.12
2018-02-22T23:04:56.891Z,27.17
2018-02-22T23:07:25.165Z,29.00
2018-02-22T23:09:53.475Z,27.92
2018-02-22T23:12:20.972Z,28.85
2018-02-22T23:14:48.469Z,29.67
2018-02-22T23:17:15.972Z,29.17
2018-02-22T23:19:43.483Z,31.15
2018-02-22T23:22:11.763Z,28.05
2018-02-22T23:24:40.032Z,30.25
2018-02-22T23:27:08.310Z,28.70
2018-02-22T23:29:36.583Z,28.65
2018-02-22T23:32:04.904Z,29.73
2018-02-22T23:34:32.423Z,28.02
2018-02-22T23:37:00.687Z,28.83
2018-02-22T23:39:29.048Z,31.00
2018-02-22T23:55:18.977Z,25.05
2018-02-22T23:57:46.488Z,28.05
